Главная страница
METAR-TAF:

METAR-TAF

Аэропорты :

Ульяновск, Россия

Ульяновск-Восточный

широта: 54-21N, долгота: 048-23E, высота над уровнем моря: м

Текущие метеонаблюдения

Эта сводка был подготовлена 35 минут назад, в 19:00 UTC
Ветер 4 Узел от юго-западный
Температура 6°C
Влажность 61%
Давление 1023 hPa
Видимость: 8000 м

METAR: UWLW 261900Z 22002MPS 8000 NSC 06/M01 Q1023 R20/CLRD60 NOSIG RMK QFE762

Время: 22:35 (19:35 UTC)

Прогноз

Эта сводка был подготовлена 2 часа и 50 минут назад, в 16:45 UTC
Прогноз действительный с 26-го 18 UTC до 27-го 18 UTC
Ветер 10 Узел от южный с порывами до 19 Узел
Видимость 10 км и более
Отдельные облака на высоте 2000 фута
временами
С 26-го 18 UTC до 27-го 03 UTC
Ветер 10 Узел от южный-юго-западный
временами
С 27-го 03 UTC до 27-го 18 UTC
Ветер 29 Узел от юго-юго-восточный

TAF: UWLW 261645Z 2618/2718 17005G10MPS 9999 SCT020 TEMPO 2618/2703 20005MPS TEMPO 2703/2718 16015MPS

Метеонаблюдения и прогнозы для более 4000 аэропортов (сводки METAR и TAF).

Имеющиеся станции представлены на карте желтыми и красными точками.

Чтобы увидеть название станции, наведите на нее мышь.

Затем щелкните, чтобы увидеть метеонаблюдения и метеопрогнозы.

Управление картой: чтобы увеличить масштаб, щелкните зеленые кнопки с черным крестиком; чтобы уменьшить масштаб, щелкните зеленую кнопку с тире; для просмотра соседних карт щелкайте зеленые стрелки.


METAR-TAF: